createdAt,value
2023-06-11T00:01:21.807Z,42.10
2023-06-11T00:03:53.472Z,42.10
2023-06-11T00:06:24.540Z,42.10
2023-06-11T00:08:55.400Z,42.20
2023-06-11T00:11:23.550Z,42.40
2023-06-11T00:13:51.384Z,42.30
2023-06-11T00:16:18.504Z,42.50
2023-06-11T00:18:46.302Z,42.70
2023-06-11T00:21:15.168Z,43.00
2023-06-11T00:23:42.027Z,43.30
2023-06-11T00:26:09.086Z,43.40
2023-06-11T00:28:36.233Z,43.50
2023-06-11T00:31:06.803Z,44.70
2023-06-11T00:33:33.627Z,43.90
2023-06-11T00:36:00.262Z,44.20
2023-06-11T00:38:27.063Z,44.30
2023-06-11T00:40:53.774Z,44.80
2023-06-11T00:43:22.986Z,45.20
2023-06-11T00:45:51.871Z,45.30
2023-06-11T00:48:22.565Z,45.60
2023-06-11T00:50:53.807Z,45.70
2023-06-11T00:53:22.916Z,45.80
2023-06-11T00:55:49.689Z,46.10
2023-06-11T00:58:18.446Z,46.30
2023-06-11T01:00:50.524Z,46.50
2023-06-11T01:03:22.242Z,46.80
2023-06-11T01:06:03.363Z,46.50
2023-06-11T01:08:32.786Z,46.20
2023-06-11T01:11:04.049Z,46.70
2023-06-11T01:13:30.852Z,46.90
2023-06-11T01:16:05.598Z,47.10
2023-06-11T01:18:40.226Z,47.50
2023-06-11T01:21:20.270Z,47.90
2023-06-11T01:24:04.808Z,47.90
2023-06-11T01:26:40.798Z,48.40
2023-06-11T01:29:10.500Z,48.50
2023-06-11T01:31:42.126Z,48.50
2023-06-11T01:34:11.852Z,48.60
2023-06-11T01:36:40.751Z,49.00
2023-06-11T01:39:07.495Z,49.70
2023-06-11T01:41:34.177Z,50.50
2023-06-11T01:44:00.882Z,51.20
2023-06-11T01:46:27.714Z,51.50
2023-06-11T01:48:54.684Z,51.70
2023-06-11T01:51:23.053Z,51.80
2023-06-11T01:53:50.807Z,52.40
2023-06-11T01:56:17.503Z,52.30
2023-06-11T01:58:46.706Z,52.50
2023-06-11T02:01:13.578Z,52.30
2023-06-11T02:03:43.336Z,52.40
2023-06-11T02:06:10.223Z,52.60
2023-06-11T02:08:37.001Z,52.60
2023-06-11T02:11:04.880Z,52.60
2023-06-11T02:13:31.966Z,53.10
2023-06-11T02:16:01.892Z,53.50
2023-06-11T02:18:28.713Z,53.40
2023-06-11T02:20:55.429Z,53.10
2023-06-11T02:23:22.203Z,53.20
2023-06-11T02:25:48.900Z,53.10
2023-06-11T02:28:16.523Z,53.00
2023-06-11T02:30:43.158Z,53.10
2023-06-11T02:33:09.952Z,53.20
2023-06-11T02:35:36.804Z,53.20
2023-06-11T02:38:03.487Z,53.70
2023-06-11T02:40:30.337Z,54.10
2023-06-11T02:42:57.056Z,54.60
2023-06-11T02:45:23.792Z,55.20
2023-06-11T02:47:50.492Z,55.40
2023-06-11T02:50:17.313Z,54.90
2023-06-11T02:52:44.072Z,55.10
2023-06-11T02:55:10.967Z,54.80
2023-06-11T02:57:37.992Z,54.70
2023-06-11T03:00:05.612Z,55.30
2023-06-11T03:02:32.367Z,56.30
2023-06-11T03:04:59.085Z,56.90
2023-06-11T03:07:25.702Z,57.50
2023-06-11T03:09:52.398Z,58.10
2023-06-11T03:12:19.150Z,59.40
2023-06-11T03:14:45.941Z,59.40
2023-06-11T03:17:12.617Z,58.80
2023-06-11T03:19:39.332Z,59.30
2023-06-11T03:22:06.101Z,58.60
2023-06-11T03:24:32.764Z,59.10
2023-06-11T03:26:59.464Z,59.40
2023-06-11T03:29:26.137Z,59.70
2023-06-11T03:31:52.969Z,60.00
2023-06-11T03:34:19.803Z,60.60
2023-06-11T03:36:46.488Z,60.50
2023-06-11T03:39:13.171Z,60.60
2023-06-11T03:41:39.863Z,61.30
2023-06-11T03:44:06.790Z,60.70
2023-06-11T03:46:33.568Z,60.60
2023-06-11T03:49:01.493Z,61.10
2023-06-11T03:51:28.195Z,61.20
2023-06-11T03:53:54.836Z,61.30
2023-06-11T03:56:21.488Z,61.00
2023-06-11T03:58:48.154Z,61.10
2023-06-11T04:01:15.300Z,60.70
2023-06-11T04:03:42.167Z,60.40
2023-06-11T04:06:09.061Z,60.50
2023-06-11T04:08:35.749Z,60.50
2023-06-11T04:11:02.492Z,60.40
2023-06-11T04:13:29.242Z,60.10
2023-06-11T04:15:56.109Z,60.00
2023-06-11T04:18:23.044Z,60.00
2023-06-11T04:20:49.715Z,60.40
2023-06-11T04:23:16.356Z,60.50
2023-06-11T04:25:44.511Z,60.60
2023-06-11T04:28:11.434Z,60.60
2023-06-11T04:30:38.146Z,60.30
2023-06-11T04:33:05.605Z,60.10
2023-06-11T04:35:35.665Z,60.10
2023-06-11T04:38:04.350Z,59.50
2023-06-11T04:40:31.617Z,59.20
2023-06-11T04:42:58.915Z,58.40
2023-06-11T04:45:28.054Z,58.10
2023-06-11T04:47:55.167Z,57.80
2023-06-11T04:50:22.472Z,57.90
2023-06-11T04:52:53.704Z,58.40
2023-06-11T04:55:25.557Z,57.20
2023-06-11T04:57:52.314Z,56.60
2023-06-11T05:00:19.253Z,56.20
2023-06-11T05:02:46.116Z,55.80
2023-06-11T05:05:14.196Z,55.90
2023-06-11T05:07:42.837Z,55.20
2023-06-11T05:10:09.853Z,55.50
2023-06-11T05:12:36.606Z,54.30
2023-06-11T05:15:03.566Z,54.60
2023-06-11T05:17:30.360Z,54.20
2023-06-11T05:19:57.055Z,53.40
2023-06-11T05:22:24.249Z,52.80
2023-06-11T05:24:51.097Z,51.80
2023-06-11T05:27:17.872Z,52.90
2023-06-11T05:29:46.429Z,51.70
2023-06-11T05:32:15.976Z,52.20
2023-06-11T05:34:43.018Z,52.00
2023-06-11T05:37:09.789Z,51.60
2023-06-11T05:39:36.590Z,50.10
2023-06-11T05:42:03.246Z,50.50
2023-06-11T05:44:29.993Z,50.40
2023-06-11T05:46:56.796Z,50.40
2023-06-11T05:49:23.766Z,49.70
2023-06-11T05:51:50.745Z,50.60
2023-06-11T05:54:17.397Z,51.10
2023-06-11T05:56:44.916Z,49.90
2023-06-11T05:59:11.636Z,49.10
2023-06-11T06:01:38.322Z,48.10
2023-06-11T06:04:05.239Z,49.00
2023-06-11T06:06:32.967Z,49.00
2023-06-11T06:09:00.302Z,49.40
2023-06-11T06:11:27.110Z,48.80
2023-06-11T06:13:53.852Z,47.50
2023-06-11T06:16:20.662Z,48.70
2023-06-11T06:18:47.505Z,47.60
2023-06-11T06:21:14.268Z,47.50
2023-06-11T06:23:41.200Z,47.90
2023-06-11T06:26:08.100Z,47.20
2023-06-11T06:28:36.617Z,46.00
2023-06-11T06:31:03.837Z,47.40
2023-06-11T06:33:35.100Z,46.90
2023-06-11T06:36:03.952Z,45.30
2023-06-11T06:38:32.386Z,46.20
2023-06-11T06:40:59.133Z,45.90
2023-06-11T06:43:25.814Z,44.90
2023-06-11T06:45:52.489Z,45.80
2023-06-11T06:48:19.298Z,44.80
2023-06-11T06:50:46.131Z,44.70
2023-06-11T06:53:12.845Z,45.20
2023-06-11T06:55:39.570Z,45.80
2023-06-11T06:58:06.339Z,45.40
2023-06-11T07:00:33.400Z,45.50
2023-06-11T07:03:00.478Z,45.60
2023-06-11T07:05:28.619Z,45.70
2023-06-11T07:07:55.388Z,45.30
2023-06-11T07:10:22.238Z,45.40
2023-06-11T07:12:49.428Z,45.20
2023-06-11T07:15:16.118Z,44.60
2023-06-11T07:17:42.798Z,43.70
2023-06-11T07:20:10.172Z,44.70
2023-06-11T07:22:37.212Z,43.90
2023-06-11T07:25:04.476Z,45.00
2023-06-11T07:27:31.286Z,44.50
2023-06-11T07:29:57.989Z,44.00
2023-06-11T07:32:24.789Z,43.70
2023-06-11T07:34:51.562Z,43.50
2023-06-11T07:37:18.326Z,43.60
2023-06-11T07:39:44.982Z,43.40
2023-06-11T07:42:11.631Z,43.00
2023-06-11T07:44:38.398Z,42.80
2023-06-11T07:47:05.527Z,43.30
2023-06-11T07:49:32.268Z,44.30
2023-06-11T07:51:58.979Z,43.30
2023-06-11T07:54:25.706Z,43.80
2023-06-11T07:56:52.729Z,42.60
2023-06-11T07:59:19.385Z,43.00
2023-06-11T08:01:46.330Z,43.20
2023-06-11T08:04:13.130Z,43.40
2023-06-11T08:06:40.211Z,43.40
2023-06-11T08:09:09.372Z,42.60
2023-06-11T08:11:36.137Z,42.90
2023-06-11T08:14:02.910Z,42.30
2023-06-11T08:16:29.680Z,42.50
2023-06-11T08:19:00.014Z,42.40
2023-06-11T08:21:26.735Z,40.70
2023-06-11T08:23:53.855Z,43.10
2023-06-11T08:26:20.962Z,41.10
2023-06-11T08:28:48.310Z,41.40
2023-06-11T08:31:15.849Z,41.20
2023-06-11T08:33:42.777Z,42.10
2023-06-11T08:36:09.765Z,42.30
2023-06-11T08:38:38.804Z,42.50
2023-06-11T08:41:06.240Z,42.30
2023-06-11T08:43:32.918Z,41.60
2023-06-11T08:45:59.689Z,42.00
2023-06-11T08:48:30.430Z,41.40
2023-06-11T08:51:00.045Z,40.30
2023-06-11T08:53:28.537Z,39.50
2023-06-11T08:55:55.973Z,40.30
2023-06-11T08:58:24.054Z,40.70
2023-06-11T09:00:50.921Z,41.80
2023-06-11T09:03:18.833Z,42.00
2023-06-11T09:05:47.261Z,41.40
2023-06-11T09:08:13.977Z,40.30
2023-06-11T09:10:51.510Z,40.50
2023-06-11T09:13:19.321Z,39.70
2023-06-11T09:15:50.501Z,41.20
2023-06-11T09:18:21.092Z,39.30
2023-06-11T09:20:56.011Z,39.90
2023-06-11T09:23:34.153Z,39.30
2023-06-11T09:26:01.755Z,39.20
2023-06-11T09:28:33.119Z,39.40
2023-06-11T09:31:01.041Z,40.00
2023-06-11T09:33:29.182Z,39.80
2023-06-11T09:35:56.191Z,40.60
2023-06-11T09:38:23.438Z,38.90
2023-06-11T09:40:51.728Z,38.80
2023-06-11T09:43:22.449Z,38.80
2023-06-11T09:45:53.924Z,38.90
2023-06-11T09:48:21.864Z,39.00
2023-06-11T09:50:50.525Z,39.10
2023-06-11T09:53:19.839Z,39.10
2023-06-11T09:56:05.434Z,39.60
2023-06-11T09:58:38.001Z,39.10
2023-06-11T10:01:07.430Z,38.10
2023-06-11T10:03:35.528Z,37.50
2023-06-11T10:06:07.999Z,37.20
2023-06-11T10:08:36.591Z,37.50
2023-06-11T10:11:04.873Z,37.80
2023-06-11T10:13:35.642Z,38.50
2023-06-11T10:16:03.629Z,38.00
2023-06-11T10:18:31.615Z,37.10
2023-06-11T10:21:06.147Z,36.60
2023-06-11T10:23:53.942Z,36.50
2023-06-11T10:26:20.792Z,35.60
2023-06-11T10:28:50.329Z,35.90
2023-06-11T10:31:30.866Z,36.50
2023-06-11T10:34:05.158Z,36.50
2023-06-11T10:36:41.703Z,36.70
2023-06-11T10:39:11.105Z,35.00
2023-06-11T10:41:39.204Z,35.50
2023-06-11T10:44:06.736Z,35.90
2023-06-11T10:46:33.583Z,35.90
2023-06-11T10:49:01.320Z,36.40
2023-06-11T10:51:40.274Z,35.40
2023-06-11T10:54:08.289Z,34.90
2023-06-11T10:56:39.001Z,34.20
2023-06-11T10:59:10.262Z,35.90
2023-06-11T11:01:38.328Z,34.80
2023-06-11T11:04:05.477Z,34.10
2023-06-11T11:06:32.922Z,34.60
2023-06-11T11:09:00.516Z,35.70
2023-06-11T11:11:27.819Z,35.40
2023-06-11T11:13:55.038Z,34.00
2023-06-11T11:16:22.186Z,34.50
2023-06-11T11:18:49.723Z,34.00
2023-06-11T11:21:16.957Z,33.90
2023-06-11T11:23:48.708Z,34.00
2023-06-11T11:26:18.430Z,34.10
2023-06-11T11:28:46.190Z,33.50
2023-06-11T11:31:17.265Z,34.60
2023-06-11T11:33:46.532Z,34.50
2023-06-11T11:36:13.569Z,34.50
2023-06-11T11:38:40.398Z,33.40
2023-06-11T11:41:13.456Z,32.90
2023-06-11T11:43:44.677Z,32.60
2023-06-11T11:46:16.382Z,32.50
2023-06-11T11:48:43.559Z,33.00
2023-06-11T11:51:12.663Z,32.90
2023-06-11T11:53:41.268Z,33.30
2023-06-11T11:56:08.097Z,33.50
2023-06-11T11:58:39.875Z,33.10
2023-06-11T12:01:10.648Z,33.10
2023-06-11T12:03:38.428Z,32.40
2023-06-11T12:06:07.746Z,31.70
2023-06-11T12:08:35.980Z,32.00
2023-06-11T12:11:04.955Z,31.50
2023-06-11T12:13:31.800Z,31.80
2023-06-11T12:16:01.934Z,32.10
2023-06-11T12:18:30.711Z,32.00
2023-06-11T12:20:57.361Z,32.70
2023-06-11T12:23:24.122Z,32.40
2023-06-11T12:25:51.122Z,32.40
2023-06-11T12:28:19.588Z,31.90
2023-06-11T12:30:47.013Z,32.00
2023-06-11T12:33:13.870Z,32.10
2023-06-11T12:35:41.175Z,31.40
2023-06-11T12:38:07.965Z,30.30
2023-06-11T12:40:34.770Z,31.50
2023-06-11T12:43:01.973Z,31.80
2023-06-11T12:45:31.432Z,33.10
2023-06-11T12:47:58.403Z,31.80
2023-06-11T12:50:27.251Z,30.60
2023-06-11T12:52:55.088Z,30.00
2023-06-11T12:55:22.139Z,29.70
2023-06-11T12:57:50.560Z,29.90
2023-06-11T13:00:17.984Z,29.40
2023-06-11T13:02:45.748Z,30.00
2023-06-11T13:05:12.738Z,29.70
2023-06-11T13:07:39.464Z,29.70
2023-06-11T13:10:06.570Z,28.50
2023-06-11T13:12:33.657Z,28.90
2023-06-11T13:15:00.582Z,28.70
2023-06-11T13:17:27.968Z,28.90
2023-06-11T13:19:56.061Z,29.20
2023-06-11T13:22:23.391Z,29.10
2023-06-11T13:24:50.668Z,29.30
2023-06-11T13:27:17.504Z,29.20
2023-06-11T13:29:44.254Z,29.00
2023-06-11T13:32:10.951Z,30.30
2023-06-11T13:34:38.329Z,29.40
2023-06-11T13:37:05.404Z,29.60
2023-06-11T13:39:33.654Z,29.70
2023-06-11T13:42:00.510Z,29.30
2023-06-11T13:44:27.411Z,29.70
2023-06-11T13:46:54.356Z,29.60
2023-06-11T13:49:21.572Z,29.70
2023-06-11T13:51:48.349Z,29.50
2023-06-11T13:54:15.309Z,29.30
2023-06-11T13:56:42.151Z,29.70
2023-06-11T13:59:08.855Z,30.80
2023-06-11T14:01:36.093Z,29.50
2023-06-11T14:04:02.901Z,29.70
2023-06-11T14:06:33.111Z,29.30
2023-06-11T14:09:00.262Z,29.40
2023-06-11T14:11:26.929Z,29.90
2023-06-11T14:13:53.758Z,29.90
2023-06-11T14:16:20.682Z,30.00
2023-06-11T14:18:47.424Z,29.50
2023-06-11T14:21:14.155Z,29.50
2023-06-11T14:23:41.012Z,29.30
2023-06-11T14:26:07.731Z,29.00
2023-06-11T14:28:34.347Z,28.80
2023-06-11T14:31:01.119Z,29.10
2023-06-11T14:33:27.933Z,29.00
2023-06-11T14:35:54.857Z,29.20
2023-06-11T14:38:21.626Z,28.50
2023-06-11T14:40:48.501Z,28.40
2023-06-11T14:43:15.275Z,29.10
2023-06-11T14:45:42.131Z,29.50
2023-06-11T14:48:09.040Z,29.50
2023-06-11T14:50:35.885Z,29.60
2023-06-11T14:53:02.623Z,29.60
2023-06-11T14:55:29.332Z,29.30
2023-06-11T14:57:55.986Z,29.10
2023-06-11T15:00:22.832Z,28.80
2023-06-11T15:02:49.583Z,28.80
2023-06-11T15:05:16.577Z,28.60
2023-06-11T15:07:43.248Z,28.70
2023-06-11T15:10:11.388Z,28.90
2023-06-11T15:12:38.441Z,29.50
2023-06-11T15:15:06.315Z,29.40
2023-06-11T15:17:36.703Z,29.10
2023-06-11T15:20:06.039Z,30.00
2023-06-11T15:22:36.175Z,29.10
2023-06-11T15:25:03.564Z,28.80
2023-06-11T15:27:30.755Z,28.80
2023-06-11T15:29:57.494Z,28.70
2023-06-11T15:32:24.189Z,28.40
2023-06-11T15:34:51.045Z,28.40
2023-06-11T15:37:18.327Z,28.50
2023-06-11T15:39:51.826Z,28.60
2023-06-11T15:42:19.110Z,28.40
2023-06-11T15:44:46.230Z,28.50
2023-06-11T15:47:13.036Z,28.10
2023-06-11T15:49:39.768Z,28.30
2023-06-11T15:52:06.761Z,28.00
2023-06-11T15:54:33.487Z,27.80
2023-06-11T15:57:01.795Z,27.90
2023-06-11T15:59:28.622Z,27.90
2023-06-11T16:01:55.515Z,27.30
2023-06-11T16:04:24.235Z,27.30
2023-06-11T16:06:51.285Z,27.10
2023-06-11T16:09:18.126Z,27.30
2023-06-11T16:11:44.775Z,26.90
2023-06-11T16:14:11.604Z,26.70
2023-06-11T16:16:38.376Z,27.00
2023-06-11T16:19:05.186Z,26.70
2023-06-11T16:21:31.918Z,27.10
2023-06-11T16:23:58.639Z,27.20
2023-06-11T16:26:26.927Z,27.20
2023-06-11T16:28:56.389Z,27.40
2023-06-11T16:31:23.402Z,27.40
2023-06-11T16:33:58.241Z,27.60
2023-06-11T16:36:27.226Z,28.30
2023-06-11T16:38:53.977Z,27.80
2023-06-11T16:41:21.784Z,27.50
2023-06-11T16:43:50.115Z,27.40
2023-06-11T16:46:20.038Z,27.40
2023-06-11T16:48:47.649Z,27.90
2023-06-11T16:51:14.837Z,27.90
2023-06-11T16:53:41.551Z,27.60
2023-06-11T16:56:08.411Z,27.60
2023-06-11T16:58:35.763Z,27.10
2023-06-11T17:01:02.674Z,27.30
2023-06-11T17:03:29.567Z,27.50
2023-06-11T17:05:56.246Z,27.60
2023-06-11T17:08:22.980Z,27.90
2023-06-11T17:10:49.808Z,27.60
2023-06-11T17:13:16.526Z,27.40
2023-06-11T17:15:43.292Z,27.70
2023-06-11T17:18:10.023Z,28.20
2023-06-11T17:20:40.443Z,27.80
2023-06-11T17:23:07.876Z,27.80
2023-06-11T17:25:34.787Z,28.00
2023-06-11T17:28:01.778Z,27.50
2023-06-11T17:30:28.802Z,27.50
2023-06-11T17:32:55.556Z,27.20
2023-06-11T17:35:22.264Z,27.60
2023-06-11T17:37:49.012Z,27.30
2023-06-11T17:40:17.335Z,27.00
2023-06-11T17:42:44.890Z,27.30
2023-06-11T17:45:12.269Z,27.90
2023-06-11T17:47:39.027Z,27.80
2023-06-11T17:50:06.412Z,27.90
2023-06-11T17:52:33.327Z,27.90
2023-06-11T17:55:00.032Z,28.30
2023-06-11T17:57:26.670Z,28.30
2023-06-11T17:59:53.476Z,28.50
2023-06-11T18:02:20.247Z,28.50
2023-06-11T18:04:46.929Z,28.60
2023-06-11T18:07:15.652Z,28.80
2023-06-11T18:09:42.391Z,29.00
2023-06-11T18:12:09.660Z,28.90
2023-06-11T18:14:36.892Z,29.20
2023-06-11T18:17:03.707Z,29.40
2023-06-11T18:19:30.570Z,29.40
2023-06-11T18:21:57.216Z,29.60
2023-06-11T18:24:24.036Z,29.90
2023-06-11T18:26:50.801Z,29.90
2023-06-11T18:29:17.508Z,30.00
2023-06-11T18:31:44.275Z,30.10
2023-06-11T18:34:11.030Z,30.00
2023-06-11T18:36:37.694Z,30.20
2023-06-11T18:39:04.488Z,30.30
2023-06-11T18:41:31.279Z,30.30
2023-06-11T18:43:58.037Z,30.50
2023-06-11T18:46:25.707Z,30.60
2023-06-11T18:48:52.506Z,30.60
2023-06-11T18:51:19.513Z,31.10
2023-06-11T18:53:46.226Z,31.00
2023-06-11T18:56:13.107Z,31.30
2023-06-11T18:58:39.844Z,31.30
2023-06-11T19:01:06.551Z,31.50
2023-06-11T19:03:36.448Z,31.50
2023-06-11T19:06:05.608Z,31.70
2023-06-11T19:08:32.311Z,31.90
2023-06-11T19:10:58.963Z,32.30
2023-06-11T19:13:25.836Z,32.30
2023-06-11T19:15:54.830Z,32.20
2023-06-11T19:18:21.726Z,32.20
2023-06-11T19:20:48.557Z,32.50
2023-06-11T19:23:15.710Z,32.20
2023-06-11T19:25:42.755Z,32.70
2023-06-11T19:28:09.461Z,32.60
2023-06-11T19:30:36.219Z,32.70
2023-06-11T19:33:03.046Z,32.80
2023-06-11T19:35:29.956Z,32.80
2023-06-11T19:37:56.742Z,33.20
2023-06-11T19:40:23.441Z,33.10
2023-06-11T19:42:50.063Z,33.20
2023-06-11T19:45:19.445Z,33.50
2023-06-11T19:47:46.691Z,33.70
2023-06-11T19:50:14.022Z,33.30
2023-06-11T19:52:41.152Z,33.80
2023-06-11T19:55:08.428Z,33.50
2023-06-11T19:57:35.158Z,33.50
2023-06-11T20:00:02.039Z,33.20
2023-06-11T20:02:29.033Z,33.10
2023-06-11T20:04:55.937Z,33.00
2023-06-11T20:07:22.656Z,33.20
2023-06-11T20:09:49.364Z,33.00
2023-06-11T20:12:16.045Z,33.30
2023-06-11T20:14:42.717Z,33.30
2023-06-11T20:17:09.431Z,33.00
2023-06-11T20:19:37.002Z,33.20
2023-06-11T20:22:04.756Z,32.90
2023-06-11T20:24:31.648Z,33.10
2023-06-11T20:26:58.477Z,33.30
2023-06-11T20:29:25.254Z,33.50
2023-06-11T20:31:52.333Z,33.50
2023-06-11T20:34:19.099Z,33.40
2023-06-11T20:36:46.036Z,33.40
2023-06-11T20:39:12.903Z,33.30
2023-06-11T20:41:39.610Z,33.50
2023-06-11T20:44:06.568Z,33.40
2023-06-11T20:46:33.373Z,33.40
2023-06-11T20:49:00.500Z,33.20
2023-06-11T20:51:27.315Z,33.00
2023-06-11T20:53:54.033Z,33.50
2023-06-11T20:56:20.938Z,33.00
2023-06-11T20:58:47.657Z,33.10
2023-06-11T21:01:14.721Z,33.80
2023-06-11T21:03:41.513Z,33.10
2023-06-11T21:06:08.424Z,33.10
2023-06-11T21:08:35.127Z,33.10
2023-06-11T21:11:01.893Z,33.10
2023-06-11T21:13:28.701Z,32.90
2023-06-11T21:15:55.381Z,32.60
2023-06-11T21:18:22.071Z,32.60
2023-06-11T21:20:48.812Z,32.60
2023-06-11T21:23:15.671Z,33.20
2023-06-11T21:25:42.374Z,33.40
2023-06-11T21:28:09.081Z,34.00
2023-06-11T21:30:37.794Z,33.00
2023-06-11T21:33:04.730Z,33.40
2023-06-11T21:35:31.571Z,33.00
2023-06-11T21:37:58.387Z,32.80
2023-06-11T21:40:25.145Z,32.80
2023-06-11T21:42:51.830Z,33.00
2023-06-11T21:45:18.529Z,33.00
2023-06-11T21:47:45.258Z,33.40
2023-06-11T21:50:12.191Z,33.40
2023-06-11T21:52:39.566Z,33.00
2023-06-11T21:55:07.743Z,32.90
2023-06-11T21:57:35.051Z,32.90
2023-06-11T22:00:07.054Z,32.80
2023-06-11T22:02:34.194Z,32.50
2023-06-11T22:05:01.853Z,32.90
2023-06-11T22:07:28.691Z,32.60
2023-06-11T22:09:55.627Z,32.50
2023-06-11T22:12:24.417Z,32.50
2023-06-11T22:14:51.257Z,32.60
2023-06-11T22:17:18.220Z,32.80
2023-06-11T22:19:45.887Z,32.10
2023-06-11T22:22:12.612Z,32.30
2023-06-11T22:24:39.568Z,32.10
2023-06-11T22:27:09.974Z,32.30
2023-06-11T22:29:36.608Z,32.20
2023-06-11T22:32:03.652Z,33.20
2023-06-11T22:34:30.418Z,32.40
2023-06-11T22:36:57.105Z,31.80
2023-06-11T22:39:23.773Z,32.00
2023-06-11T22:41:50.459Z,32.00
2023-06-11T22:44:17.593Z,32.30
2023-06-11T22:46:44.500Z,32.20
2023-06-11T22:49:12.626Z,32.10
2023-06-11T22:51:39.359Z,32.00
2023-06-11T22:54:09.217Z,32.10
2023-06-11T22:56:36.500Z,32.40
2023-06-11T22:59:03.176Z,32.40
2023-06-11T23:01:29.957Z,33.00
2023-06-11T23:03:56.748Z,32.10
2023-06-11T23:06:23.529Z,32.40
2023-06-11T23:08:50.535Z,32.40
2023-06-11T23:11:17.254Z,32.30
2023-06-11T23:13:43.904Z,32.30
2023-06-11T23:16:11.573Z,32.40
2023-06-11T23:18:38.310Z,32.90
2023-06-11T23:21:05.265Z,32.50
2023-06-11T23:23:33.621Z,32.50
2023-06-11T23:26:00.381Z,32.60
2023-06-11T23:28:29.074Z,32.80
2023-06-11T23:30:58.198Z,32.80
2023-06-11T23:33:25.315Z,33.20
2023-06-11T23:35:52.661Z,33.10
2023-06-11T23:38:19.433Z,33.00
2023-06-11T23:40:46.532Z,33.40
2023-06-11T23:43:13.365Z,33.50
2023-06-11T23:45:40.131Z,33.30
2023-06-11T23:48:07.040Z,33.40
2023-06-11T23:50:33.796Z,33.50
2023-06-11T23:53:00.601Z,33.50
2023-06-11T23:55:27.619Z,33.20
2023-06-11T23:58:17.319Z,33.60
